createdAt,value
2019-06-27T00:01:40.091Z,25.99
2019-06-27T00:04:10.323Z,25.96
2019-06-27T00:06:40.392Z,25.90
2019-06-27T00:09:11.442Z,25.88
2019-06-27T00:11:41.657Z,25.85
2019-06-27T00:14:11.750Z,25.82
2019-06-27T00:16:41.817Z,25.78
2019-06-27T00:19:11.878Z,25.74
2019-06-27T00:21:42.057Z,25.72
2019-06-27T00:24:13.161Z,25.67
2019-06-27T00:26:56.144Z,25.64
2019-06-27T00:29:14.971Z,25.62
2019-06-27T00:31:45.329Z,25.58
2019-06-27T00:34:15.425Z,25.53
2019-06-27T00:36:45.509Z,25.50
2019-06-27T00:39:15.639Z,25.47
2019-06-27T00:41:45.731Z,25.43
2019-06-27T00:44:16.579Z,25.37
2019-06-27T00:46:46.724Z,25.32
2019-06-27T00:49:16.872Z,25.30
2019-06-27T00:51:46.926Z,25.27
2019-06-27T00:54:17.074Z,25.26
2019-06-27T00:56:47.229Z,25.21
2019-06-27T00:59:17.271Z,25.17
2019-06-27T01:01:47.655Z,25.13
2019-06-27T01:04:17.831Z,25.10
2019-06-27T01:06:52.065Z,25.06
2019-06-27T01:09:22.231Z,25.00
2019-06-27T01:11:54.206Z,24.98
2019-06-27T01:14:24.147Z,24.95
2019-06-27T01:16:54.085Z,24.91
2019-06-27T01:19:24.110Z,24.89
2019-06-27T01:21:54.787Z,24.85
2019-06-27T01:24:25.088Z,24.84
2019-06-27T01:26:55.023Z,24.81
2019-06-27T01:29:25.260Z,24.77
2019-06-27T01:31:55.584Z,24.74
2019-06-27T01:34:25.533Z,24.70
2019-06-27T01:36:55.774Z,24.67
2019-06-27T01:39:26.050Z,24.62
2019-06-27T01:41:56.884Z,24.59
2019-06-27T01:44:39.826Z,24.55
2019-06-27T01:47:09.840Z,24.53
2019-06-27T01:49:39.780Z,24.50
2019-06-27T01:52:09.712Z,24.47
2019-06-27T01:54:39.656Z,24.45
2019-06-27T01:57:09.631Z,24.41
2019-06-27T01:59:39.431Z,24.39
2019-06-27T02:02:09.378Z,24.34
2019-06-27T02:04:39.407Z,24.31
2019-06-27T02:07:09.741Z,24.27
2019-06-27T02:09:39.680Z,24.22
2019-06-27T02:12:09.688Z,24.17
2019-06-27T02:14:39.633Z,24.14
2019-06-27T02:17:09.575Z,24.11
2019-06-27T02:19:39.517Z,24.06
2019-06-27T02:22:10.160Z,24.03
2019-06-27T02:24:40.101Z,23.99
2019-06-27T02:27:10.054Z,23.98
2019-06-27T02:29:39.957Z,23.96
2019-06-27T02:32:10.601Z,23.93
2019-06-27T02:34:41.009Z,23.88
2019-06-27T02:37:10.959Z,23.86
2019-06-27T02:39:40.834Z,23.86
2019-06-27T02:42:10.997Z,23.84
2019-06-27T02:44:40.862Z,23.80
2019-06-27T02:47:10.830Z,23.77
2019-06-27T02:49:40.816Z,23.72
2019-06-27T02:52:11.837Z,23.66
2019-06-27T02:54:41.814Z,23.62
2019-06-27T02:57:13.193Z,23.61
2019-06-27T02:59:43.379Z,23.58
2019-06-27T03:02:13.801Z,23.56
2019-06-27T03:04:43.651Z,23.52
2019-06-27T03:07:13.601Z,23.47
2019-06-27T03:09:43.752Z,23.44
2019-06-27T03:12:13.689Z,23.40
2019-06-27T03:14:43.603Z,23.40
2019-06-27T03:17:14.238Z,23.36
2019-06-27T03:19:44.184Z,23.34
2019-06-27T03:22:14.184Z,23.31
2019-06-27T03:24:44.366Z,23.30
2019-06-27T03:27:14.231Z,23.27
2019-06-27T03:29:44.407Z,23.25
2019-06-27T03:32:14.353Z,23.22
2019-06-27T03:34:44.300Z,23.20
2019-06-27T03:37:14.550Z,23.17
2019-06-27T03:39:44.650Z,23.14
2019-06-27T03:42:14.533Z,23.10
2019-06-27T03:44:44.554Z,23.08
2019-06-27T03:47:14.830Z,23.06
2019-06-27T03:49:44.702Z,23.05
2019-06-27T03:52:14.567Z,23.02
2019-06-27T03:54:44.963Z,22.98
2019-06-27T03:57:14.902Z,22.95
2019-06-27T03:59:45.538Z,22.92
2019-06-27T04:02:15.826Z,22.91
2019-06-27T04:04:45.811Z,22.87
2019-06-27T04:07:16.044Z,22.84
2019-06-27T04:09:46.450Z,22.83
2019-06-27T04:12:16.383Z,22.83
2019-06-27T04:14:46.353Z,22.83
2019-06-27T04:17:16.669Z,22.82
2019-06-27T04:19:47.101Z,22.78
2019-06-27T04:22:17.772Z,22.76
2019-06-27T04:24:48.557Z,22.76
2019-06-27T04:27:18.542Z,22.74
2019-06-27T04:29:48.719Z,22.72
2019-06-27T04:32:18.689Z,22.72
2019-06-27T04:34:48.699Z,22.71
2019-06-27T04:37:19.472Z,22.71
2019-06-27T04:39:49.417Z,22.69
2019-06-27T04:42:19.659Z,22.69
2019-06-27T04:44:49.552Z,22.66
2019-06-27T04:47:19.423Z,22.66
2019-06-27T04:49:49.546Z,22.66
2019-06-27T04:52:19.726Z,22.67
2019-06-27T04:54:49.688Z,22.65
2019-06-27T04:57:20.011Z,22.64
2019-06-27T04:59:53.887Z,22.63
2019-06-27T05:02:22.318Z,22.62
2019-06-27T05:04:52.183Z,22.58
2019-06-27T05:07:22.475Z,22.64
2019-06-27T05:09:52.338Z,22.66
2019-06-27T05:12:22.469Z,22.67
2019-06-27T05:14:52.335Z,22.67
2019-06-27T05:17:22.797Z,22.67
2019-06-27T05:19:52.790Z,22.64
2019-06-27T05:22:22.836Z,22.64
2019-06-27T05:24:53.170Z,22.63
2019-06-27T05:27:23.211Z,22.63
2019-06-27T05:30:08.100Z,22.62
2019-06-27T05:32:24.901Z,22.65
2019-06-27T05:34:54.758Z,22.61
2019-06-27T05:37:24.640Z,22.67
2019-06-27T05:39:55.275Z,22.66
2019-06-27T05:42:25.162Z,22.65
2019-06-27T05:44:55.515Z,22.64
2019-06-27T05:47:25.449Z,22.62
2019-06-27T05:49:55.412Z,22.62
2019-06-27T05:52:25.704Z,22.63
2019-06-27T05:54:55.655Z,22.61
2019-06-27T05:57:26.144Z,22.63
2019-06-27T06:00:27.738Z,22.65
2019-06-27T06:02:47.060Z,22.69
2019-06-27T06:05:17.024Z,22.74
2019-06-27T06:07:46.960Z,22.76
2019-06-27T06:10:17.307Z,22.76
2019-06-27T06:12:47.231Z,22.77
2019-06-27T06:15:17.885Z,22.76
2019-06-27T06:17:47.890Z,22.76
2019-06-27T06:20:18.313Z,22.78
2019-06-27T06:22:48.246Z,22.80
2019-06-27T06:25:18.721Z,22.81
2019-06-27T06:27:49.024Z,22.82
2019-06-27T06:30:19.279Z,22.78
2019-06-27T06:32:49.118Z,22.77
2019-06-27T06:35:19.043Z,22.75
2019-06-27T06:37:48.991Z,22.75
2019-06-27T06:40:19.291Z,22.73
2019-06-27T06:42:49.262Z,22.75
2019-06-27T06:45:19.194Z,22.71
2019-06-27T06:47:49.125Z,22.76
2019-06-27T06:50:19.307Z,22.77
2019-06-27T06:52:49.493Z,22.78
2019-06-27T06:55:19.698Z,22.78
2019-06-27T06:57:49.641Z,22.81
2019-06-27T07:00:22.739Z,22.81
2019-06-27T07:02:52.672Z,22.80
2019-06-27T07:05:23.044Z,22.80
2019-06-27T07:07:53.013Z,22.81
2019-06-27T07:10:23.239Z,22.81
2019-06-27T07:12:53.285Z,22.82
2019-06-27T07:15:23.154Z,22.82
2019-06-27T07:17:54.531Z,22.82
2019-06-27T07:20:24.792Z,22.83
2019-06-27T07:22:54.735Z,22.87
2019-06-27T07:25:24.958Z,22.87
2019-06-27T07:27:54.853Z,22.89
2019-06-27T07:30:24.756Z,22.91
2019-06-27T07:32:54.750Z,22.82
2019-06-27T07:35:25.046Z,22.83
2019-06-27T07:37:55.228Z,22.87
2019-06-27T07:40:25.153Z,22.90
2019-06-27T07:42:55.446Z,22.84
2019-06-27T07:45:25.399Z,22.91
2019-06-27T07:47:55.696Z,22.92
2019-06-27T07:50:25.905Z,22.95
2019-06-27T07:52:56.549Z,22.96
2019-06-27T07:55:26.493Z,22.98
2019-06-27T07:57:56.362Z,22.98
2019-06-27T08:00:26.707Z,22.99
2019-06-27T08:02:56.576Z,22.99
2019-06-27T08:05:26.584Z,23.00
2019-06-27T08:07:56.460Z,23.01
2019-06-27T08:10:26.416Z,23.05
2019-06-27T08:12:56.317Z,23.07
2019-06-27T08:15:26.484Z,23.08
2019-06-27T08:17:56.470Z,23.10
2019-06-27T08:20:26.367Z,23.14
2019-06-27T08:22:56.682Z,23.22
2019-06-27T08:25:26.544Z,23.23
2019-06-27T08:27:57.637Z,23.17
2019-06-27T08:30:28.001Z,23.17
2019-06-27T08:32:57.979Z,23.21
2019-06-27T08:35:27.811Z,23.28
2019-06-27T08:37:58.086Z,23.34
2019-06-27T08:40:28.395Z,23.37
2019-06-27T08:42:59.290Z,23.40
2019-06-27T08:45:29.095Z,23.41
2019-06-27T08:47:59.270Z,23.43
2019-06-27T08:50:29.123Z,23.44
2019-06-27T08:53:01.299Z,23.43
2019-06-27T08:55:30.660Z,23.44
2019-06-27T08:58:00.875Z,23.45
2019-06-27T09:00:30.975Z,23.41
2019-06-27T09:03:00.803Z,23.37
2019-06-27T09:05:30.688Z,23.35
2019-06-27T09:08:01.773Z,23.37
2019-06-27T09:10:31.675Z,23.40
2019-06-27T09:13:01.550Z,23.42
2019-06-27T09:15:31.856Z,23.43
2019-06-27T09:18:01.650Z,23.44
2019-06-27T09:20:31.567Z,23.47
2019-06-27T09:23:01.797Z,23.50
2019-06-27T09:25:32.118Z,23.50
2019-06-27T09:28:02.563Z,23.52
2019-06-27T09:30:32.836Z,23.60
2019-06-27T09:33:02.787Z,23.61
2019-06-27T09:35:33.155Z,23.64
2019-06-27T09:38:03.606Z,23.68
2019-06-27T09:40:33.558Z,23.67
2019-06-27T09:43:03.768Z,23.67
2019-06-27T09:45:33.974Z,23.73
2019-06-27T09:48:04.279Z,23.81
2019-06-27T09:50:34.171Z,23.78
2019-06-27T09:53:04.416Z,23.90
2019-06-27T09:55:34.368Z,23.95
2019-06-27T09:58:04.348Z,23.94
2019-06-27T10:00:34.600Z,23.96
2019-06-27T10:03:04.499Z,23.98
2019-06-27T10:05:34.381Z,24.04
2019-06-27T10:08:04.338Z,24.12
2019-06-27T10:10:35.228Z,24.17
2019-06-27T10:13:05.168Z,24.16
2019-06-27T10:15:35.111Z,24.14
2019-06-27T10:18:05.453Z,24.15
2019-06-27T10:20:35.592Z,24.24
2019-06-27T10:23:05.526Z,24.34
2019-06-27T10:25:38.183Z,24.38
2019-06-27T10:28:07.477Z,24.40
2019-06-27T10:30:38.935Z,24.37
2019-06-27T10:33:09.249Z,24.37
2019-06-27T10:35:39.240Z,24.46
2019-06-27T10:38:09.158Z,24.56
2019-06-27T10:40:39.712Z,24.59
2019-06-27T10:43:09.633Z,24.61
2019-06-27T10:45:39.699Z,24.64
2019-06-27T10:48:10.504Z,24.76
2019-06-27T10:50:40.432Z,24.83
2019-06-27T10:53:10.379Z,24.91
2019-06-27T10:55:40.275Z,25.10
2019-06-27T10:58:10.282Z,25.33
2019-06-27T11:00:40.500Z,25.51
2019-06-27T11:03:15.408Z,25.69
2019-06-27T11:05:43.724Z,25.90
2019-06-27T11:08:13.706Z,26.13
2019-06-27T11:10:43.661Z,26.38
2019-06-27T11:13:13.585Z,26.65
2019-06-27T11:15:43.378Z,26.84
2019-06-27T11:18:13.271Z,27.02
2019-06-27T11:20:43.174Z,27.18
2019-06-27T11:23:13.322Z,27.37
2019-06-27T11:25:43.531Z,27.48
2019-06-27T11:28:13.395Z,27.62
2019-06-27T11:30:43.350Z,27.79
2019-06-27T11:33:13.355Z,27.95
2019-06-27T11:35:43.715Z,28.12
2019-06-27T11:38:14.106Z,28.29
2019-06-27T11:40:44.059Z,28.43
2019-06-27T11:43:13.907Z,28.55
2019-06-27T11:45:43.682Z,28.72
2019-06-27T11:48:13.680Z,28.82
2019-06-27T11:50:43.613Z,28.94
2019-06-27T11:53:13.936Z,29.07
2019-06-27T11:55:44.175Z,29.22
2019-06-27T11:58:14.066Z,29.38
2019-06-27T12:00:44.269Z,29.53
2019-06-27T12:03:14.247Z,29.56
2019-06-27T12:05:44.202Z,29.61
2019-06-27T12:08:14.726Z,29.73
2019-06-27T12:10:44.646Z,29.88
2019-06-27T12:13:14.450Z,30.03
2019-06-27T12:15:44.623Z,30.12
2019-06-27T12:18:14.838Z,30.21
2019-06-27T12:20:45.092Z,30.32
2019-06-27T12:23:15.173Z,30.36
2019-06-27T12:25:45.204Z,30.36
2019-06-27T12:28:16.229Z,30.48
2019-06-27T12:30:46.176Z,30.58
2019-06-27T12:33:16.187Z,30.62
2019-06-27T12:35:46.601Z,30.70
2019-06-27T12:38:16.533Z,30.82
2019-06-27T12:40:47.216Z,30.95
2019-06-27T12:43:17.415Z,31.09
2019-06-27T12:45:47.269Z,31.20
2019-06-27T12:48:17.651Z,31.31
2019-06-27T12:50:47.927Z,31.40
2019-06-27T12:53:17.874Z,31.52
2019-06-27T12:55:47.833Z,31.60
2019-06-27T12:58:18.145Z,31.65
2019-06-27T13:00:48.097Z,31.72
2019-06-27T13:03:18.049Z,31.79
2019-06-27T13:05:47.928Z,31.83
2019-06-27T13:08:18.256Z,31.91
2019-06-27T13:10:48.520Z,31.90
2019-06-27T13:13:18.388Z,31.90
2019-06-27T13:15:48.251Z,31.92
2019-06-27T13:18:18.415Z,31.96
2019-06-27T13:20:57.662Z,31.98
2019-06-27T13:23:20.611Z,32.08
2019-06-27T13:25:50.727Z,32.16
2019-06-27T13:28:20.688Z,32.20
2019-06-27T13:30:52.307Z,32.24
2019-06-27T13:33:22.329Z,32.25
2019-06-27T13:35:52.301Z,32.31
2019-06-27T13:38:22.237Z,32.35
2019-06-27T13:40:52.519Z,32.32
2019-06-27T13:43:22.825Z,32.35
2019-06-27T13:45:52.774Z,32.42
2019-06-27T13:48:22.728Z,32.42
2019-06-27T13:50:52.965Z,32.48
2019-06-27T13:53:22.954Z,32.56
2019-06-27T13:55:52.742Z,32.63
2019-06-27T13:58:22.665Z,32.71
2019-06-27T14:00:52.629Z,32.73
2019-06-27T14:03:22.814Z,32.83
2019-06-27T14:05:52.844Z,32.92
2019-06-27T14:08:26.024Z,33.00
2019-06-27T14:10:54.322Z,32.99
2019-06-27T14:13:24.255Z,32.99
2019-06-27T14:15:54.560Z,33.06
2019-06-27T14:18:24.498Z,33.12
2019-06-27T14:20:54.394Z,33.22
2019-06-27T14:23:24.607Z,33.35
2019-06-27T14:25:55.050Z,33.39
2019-06-27T14:28:24.962Z,33.44
2019-06-27T14:30:54.929Z,33.39
2019-06-27T14:33:25.922Z,33.40
2019-06-27T14:35:55.806Z,33.40
2019-06-27T14:38:25.740Z,33.41
2019-06-27T14:40:55.709Z,33.40
2019-06-27T14:43:25.648Z,33.35
2019-06-27T14:45:55.586Z,33.36
2019-06-27T14:48:25.380Z,33.35
2019-06-27T14:50:55.407Z,33.37
2019-06-27T14:53:25.386Z,33.33
2019-06-27T14:55:55.732Z,33.30
2019-06-27T14:58:26.014Z,33.37
2019-06-27T15:00:55.935Z,33.33
2019-06-27T15:03:25.939Z,33.28
2019-06-27T15:06:00.181Z,33.31
2019-06-27T15:08:28.197Z,33.29
2019-06-27T15:10:58.183Z,33.34
2019-06-27T15:13:28.115Z,33.33
2019-06-27T15:16:11.411Z,33.38
2019-06-27T15:18:29.795Z,33.31
2019-06-27T15:20:59.841Z,33.26
2019-06-27T15:23:29.809Z,33.22
2019-06-27T15:26:00.625Z,33.19
2019-06-27T15:28:34.093Z,33.20
2019-06-27T15:31:02.662Z,33.13
2019-06-27T15:33:32.556Z,33.02
2019-06-27T15:36:02.437Z,33.04
2019-06-27T15:38:32.647Z,33.05
2019-06-27T15:41:02.698Z,33.06
2019-06-27T15:43:32.673Z,32.99
2019-06-27T15:46:02.607Z,32.89
2019-06-27T15:48:32.485Z,32.70
2019-06-27T15:51:02.469Z,32.65
2019-06-27T15:53:32.675Z,32.66
2019-06-27T15:56:03.049Z,32.64
2019-06-27T15:58:33.045Z,32.56
2019-06-27T16:01:03.629Z,32.45
2019-06-27T16:03:33.616Z,32.37
2019-06-27T16:06:09.333Z,32.25
2019-06-27T16:08:35.872Z,32.25
2019-06-27T16:11:06.119Z,32.23
2019-06-27T16:13:36.912Z,32.15
2019-06-27T16:16:07.434Z,32.04
2019-06-27T16:18:40.872Z,32.01
2019-06-27T16:21:09.393Z,32.00
2019-06-27T16:23:39.392Z,31.99
2019-06-27T16:26:09.379Z,31.95
2019-06-27T16:28:39.675Z,31.90
2019-06-27T16:31:09.726Z,31.90
2019-06-27T16:33:39.767Z,31.88
2019-06-27T16:36:24.482Z,31.85
2019-06-27T16:38:41.836Z,31.77
2019-06-27T16:41:11.783Z,31.76
2019-06-27T16:43:41.784Z,31.74
2019-06-27T16:46:11.718Z,31.63
2019-06-27T16:48:42.379Z,31.56
2019-06-27T16:51:12.345Z,31.51
2019-06-27T16:53:42.608Z,31.48
2019-06-27T16:56:12.651Z,31.42
2019-06-27T16:58:42.776Z,31.40
2019-06-27T17:01:12.742Z,31.42
2019-06-27T17:03:42.705Z,31.43
2019-06-27T17:06:12.997Z,31.34
2019-06-27T17:08:43.304Z,31.33
2019-06-27T17:11:14.351Z,31.29
2019-06-27T17:13:44.305Z,31.26
2019-06-27T17:16:14.353Z,31.25
2019-06-27T17:18:44.290Z,31.30
2019-06-27T17:21:14.236Z,31.17
2019-06-27T17:23:44.272Z,31.15
2019-06-27T17:26:14.251Z,31.16
2019-06-27T17:28:44.173Z,31.19
2019-06-27T17:31:14.189Z,31.18
2019-06-27T17:33:44.336Z,31.18
2019-06-27T17:36:14.905Z,31.18
2019-06-27T17:38:44.808Z,31.26
2019-06-27T17:41:15.378Z,31.29
2019-06-27T17:43:45.319Z,31.27
2019-06-27T17:46:15.281Z,31.20
2019-06-27T17:48:45.245Z,31.08
2019-06-27T17:51:15.553Z,31.06
2019-06-27T17:53:45.639Z,31.02
2019-06-27T17:56:15.830Z,30.93
2019-06-27T17:58:46.113Z,30.83
2019-06-27T18:01:16.334Z,30.67
2019-06-27T18:03:46.324Z,30.46
2019-06-27T18:06:16.337Z,30.25
2019-06-27T18:08:46.577Z,30.19
2019-06-27T18:11:16.546Z,30.07
2019-06-27T18:13:47.026Z,30.04
2019-06-27T18:16:16.910Z,30.02
2019-06-27T18:18:47.469Z,29.95
2019-06-27T18:21:17.446Z,29.78
2019-06-27T18:23:47.441Z,29.67
2019-06-27T18:26:18.020Z,29.55
2019-06-27T18:28:47.858Z,29.50
2019-06-27T18:31:17.790Z,29.38
2019-06-27T18:34:06.877Z,29.31
2019-06-27T18:36:37.063Z,29.25
2019-06-27T18:39:07.337Z,29.18
2019-06-27T18:41:37.275Z,29.12
2019-06-27T18:44:07.220Z,29.04
2019-06-27T18:46:37.542Z,29.00
2019-06-27T18:49:07.465Z,28.93
2019-06-27T18:51:37.320Z,28.88
2019-06-27T18:54:07.329Z,28.82
2019-06-27T18:56:37.253Z,28.76
2019-06-27T18:59:07.198Z,28.70
2019-06-27T19:01:37.126Z,28.63
2019-06-27T19:04:07.084Z,28.54
2019-06-27T19:06:37.358Z,28.49
2019-06-27T19:09:07.616Z,28.47
2019-06-27T19:11:37.640Z,28.44
2019-06-27T19:14:07.555Z,28.39
2019-06-27T19:16:37.734Z,28.35
2019-06-27T19:19:09.832Z,28.32
2019-06-27T19:21:46.682Z,28.27
2019-06-27T19:24:50.929Z,28.23
2019-06-27T19:27:20.987Z,28.19
2019-06-27T19:29:50.986Z,28.12
2019-06-27T19:32:20.911Z,28.07
2019-06-27T19:34:50.938Z,28.01
2019-06-27T19:37:21.926Z,27.96
2019-06-27T19:39:53.063Z,27.92
2019-06-27T19:42:22.921Z,27.87
2019-06-27T19:44:53.235Z,27.82
2019-06-27T19:47:23.393Z,27.75
2019-06-27T19:49:53.616Z,27.71
2019-06-27T19:52:23.768Z,27.64
2019-06-27T19:54:54.041Z,27.60
2019-06-27T19:57:25.412Z,27.55
2019-06-27T19:59:55.740Z,27.50
2019-06-27T20:02:25.683Z,27.46
2019-06-27T20:04:55.578Z,27.42
2019-06-27T20:07:26.483Z,27.39
2019-06-27T20:09:56.454Z,27.31
2019-06-27T20:12:26.406Z,27.26
2019-06-27T20:14:56.961Z,27.22
2019-06-27T20:17:26.892Z,27.17
2019-06-27T20:19:57.806Z,27.14
2019-06-27T20:22:27.717Z,27.08
2019-06-27T20:24:57.713Z,27.04
2019-06-27T20:27:27.661Z,26.99
2019-06-27T20:29:59.135Z,26.95
2019-06-27T20:32:29.001Z,26.91
2019-06-27T20:34:58.848Z,26.87
2019-06-27T20:37:29.228Z,26.82
2019-06-27T20:39:59.926Z,26.78
2019-06-27T20:42:29.948Z,26.74
2019-06-27T20:44:59.873Z,26.71
2019-06-27T20:47:30.114Z,26.66
2019-06-27T20:49:59.994Z,26.63
2019-06-27T20:52:29.942Z,26.56
2019-06-27T20:54:59.907Z,26.51
2019-06-27T20:57:29.756Z,26.46
2019-06-27T21:00:00.097Z,26.41
2019-06-27T21:02:30.102Z,26.35
2019-06-27T21:05:00.147Z,26.31
2019-06-27T21:07:30.305Z,26.25
2019-06-27T21:10:00.614Z,26.21
2019-06-27T21:12:31.836Z,26.18
2019-06-27T21:15:01.933Z,26.15
2019-06-27T21:17:32.941Z,26.09
2019-06-27T21:20:03.193Z,26.03
2019-06-27T21:25:23.282Z,25.93
2019-06-27T21:27:53.230Z,25.88
2019-06-27T21:30:26.070Z,25.83
2019-06-27T21:32:56.089Z,25.80
2019-06-27T21:35:26.420Z,25.77
2019-06-27T21:37:56.600Z,25.71
2019-06-27T21:40:26.773Z,25.66
2019-06-27T21:42:56.685Z,25.62
2019-06-27T21:45:26.662Z,25.57
2019-06-27T21:47:56.615Z,25.52
2019-06-27T21:50:26.570Z,25.49
2019-06-27T21:52:56.574Z,25.44
2019-06-27T21:55:26.572Z,25.43
2019-06-27T21:57:59.894Z,25.38
2019-06-27T22:00:29.957Z,25.34
2019-06-27T22:03:01.618Z,25.32
2019-06-27T22:05:31.562Z,25.27
2019-06-27T22:08:01.461Z,25.22
2019-06-27T22:10:31.746Z,25.16
2019-06-27T22:13:02.114Z,25.11
2019-06-27T22:15:32.041Z,25.05
2019-06-27T22:18:02.096Z,25.00
2019-06-27T22:20:32.096Z,24.97
2019-06-27T22:23:02.121Z,24.91
2019-06-27T22:25:40.473Z,24.88
2019-06-27T22:28:03.888Z,24.84
2019-06-27T22:30:33.743Z,24.81
2019-06-27T22:33:03.684Z,24.78
2019-06-27T22:35:33.600Z,24.77
2019-06-27T22:38:21.644Z,24.72
2019-06-27T22:41:09.644Z,24.67
2019-06-27T22:43:57.544Z,24.60
2019-06-27T22:46:45.213Z,24.57
2019-06-27T22:49:15.239Z,24.54
2019-06-27T22:52:00.377Z,24.47
2019-06-27T22:54:31.142Z,24.43
2019-06-27T22:57:01.431Z,24.40
2019-06-27T22:59:31.477Z,24.37
2019-06-27T23:02:01.797Z,24.33
2019-06-27T23:04:31.736Z,24.30
2019-06-27T23:07:02.021Z,24.26
2019-06-27T23:09:32.314Z,24.23
2019-06-27T23:12:02.287Z,24.21
2019-06-27T23:14:32.585Z,24.15
2019-06-27T23:17:02.677Z,24.11
2019-06-27T23:19:32.567Z,24.10
2019-06-27T23:22:02.764Z,24.07
2019-06-27T23:24:32.628Z,24.08
2019-06-27T23:27:02.521Z,24.03
2019-06-27T23:29:32.445Z,23.99
2019-06-27T23:32:02.418Z,23.97
2019-06-27T23:34:32.216Z,23.94
2019-06-27T23:37:06.317Z,23.89
2019-06-27T23:39:36.454Z,23.87
2019-06-27T23:42:06.866Z,23.84
2019-06-27T23:44:36.996Z,23.80
2019-06-27T23:47:06.903Z,23.77
2019-06-27T23:49:36.767Z,23.76
2019-06-27T23:52:06.905Z,23.71
2019-06-27T23:54:37.189Z,23.67
2019-06-27T23:57:07.127Z,23.63
2019-06-27T23:59:37.390Z,23.59
